createdAt,value
2023-04-16T00:02:38.248Z,5.43
2023-04-16T00:05:17.252Z,5.53
2023-04-16T00:07:58.394Z,5.46
2023-04-16T00:10:44.593Z,5.63
2023-04-16T00:13:28.121Z,5.55
2023-04-16T00:16:06.593Z,5.57
2023-04-16T00:18:52.007Z,5.45
2023-04-16T00:21:35.637Z,5.50
2023-04-16T00:24:21.833Z,5.50
2023-04-16T00:27:05.541Z,5.40
2023-04-16T00:29:49.862Z,5.32
2023-04-16T00:32:33.237Z,5.28
2023-04-16T00:35:13.929Z,5.23
2023-04-16T00:37:49.240Z,5.22
2023-04-16T00:40:32.695Z,5.11
2023-04-16T00:43:08.526Z,5.08
2023-04-16T00:45:49.763Z,5.04
2023-04-16T00:48:33.376Z,4.95
2023-04-16T00:51:11.639Z,4.88
2023-04-16T00:53:56.038Z,4.83
2023-04-16T00:56:42.742Z,4.69
2023-04-16T00:59:23.530Z,4.63
2023-04-16T01:02:07.925Z,4.61
2023-04-16T01:04:51.747Z,4.63
2023-04-16T01:07:30.166Z,4.64
2023-04-16T01:10:14.328Z,4.61
2023-04-16T01:13:00.575Z,4.47
2023-04-16T01:15:39.017Z,4.41
2023-04-16T01:18:25.920Z,4.48
2023-04-16T01:21:12.011Z,4.50
2023-04-16T01:23:54.863Z,4.48
2023-04-16T01:26:31.035Z,4.42
2023-04-16T01:29:10.119Z,4.48
2023-04-16T01:32:04.065Z,4.40
2023-04-16T01:34:50.664Z,4.34
2023-04-16T01:37:41.097Z,4.29
2023-04-16T01:40:15.535Z,4.27
2023-04-16T01:42:51.179Z,4.31
2023-04-16T01:45:26.073Z,4.26
2023-04-16T01:48:05.199Z,4.34
2023-04-16T01:50:46.090Z,4.30
2023-04-16T01:53:29.472Z,4.34
2023-04-16T01:55:59.094Z,4.30
2023-04-16T01:58:43.896Z,4.30
2023-04-16T02:01:19.089Z,4.28
2023-04-16T02:03:58.940Z,4.25
2023-04-16T02:06:40.330Z,4.22
2023-04-16T02:09:21.213Z,4.17
2023-04-16T02:12:02.613Z,4.18
2023-04-16T02:14:41.542Z,4.07
2023-04-16T02:17:22.280Z,4.17
2023-04-16T02:20:18.808Z,4.03
2023-04-16T02:23:00.968Z,3.99
2023-04-16T02:25:44.632Z,3.88
2023-04-16T02:28:23.030Z,3.86
2023-04-16T02:31:06.834Z,3.81
2023-04-16T02:33:43.833Z,3.89
2023-04-16T02:36:25.055Z,3.77
2023-04-16T02:39:06.882Z,3.70
2023-04-16T02:41:39.525Z,3.56
2023-04-16T02:44:14.834Z,3.59
2023-04-16T02:46:49.971Z,3.63
2023-04-16T02:49:31.838Z,3.59
2023-04-16T02:52:09.085Z,3.46
2023-04-16T02:54:51.787Z,3.46
2023-04-16T02:57:39.233Z,3.32
2023-04-16T03:00:10.024Z,3.33
2023-04-16T03:02:47.127Z,3.36
2023-04-16T03:05:31.543Z,3.37
2023-04-16T03:08:15.549Z,3.28
2023-04-16T03:10:48.254Z,3.19
2023-04-16T03:13:31.392Z,3.11
2023-04-16T03:16:06.804Z,3.14
2023-04-16T03:18:48.566Z,3.08
2023-04-16T03:21:31.808Z,3.04
2023-04-16T03:24:07.847Z,2.95
2023-04-16T03:26:49.161Z,2.75
2023-04-16T03:29:27.565Z,2.81
2023-04-16T03:32:13.152Z,2.90
2023-04-16T03:34:54.883Z,2.88
2023-04-16T03:37:36.044Z,2.97
2023-04-16T03:40:15.021Z,2.95
2023-04-16T03:42:47.441Z,2.96
2023-04-16T03:45:24.551Z,2.94
2023-04-16T03:48:06.581Z,2.89
2023-04-16T03:50:51.820Z,2.86
2023-04-16T03:53:28.821Z,2.90
2023-04-16T03:56:09.675Z,2.93
2023-04-16T03:58:50.926Z,2.94
2023-04-16T04:01:27.406Z,2.91
2023-04-16T04:04:09.023Z,2.96
2023-04-16T04:06:51.307Z,2.94
2023-04-16T04:09:26.771Z,3.03
2023-04-16T04:12:13.813Z,3.11
2023-04-16T04:15:02.908Z,3.17
2023-04-16T04:17:36.157Z,3.26
2023-04-16T04:20:22.582Z,3.22
2023-04-16T04:23:01.121Z,3.34
2023-04-16T04:25:39.501Z,3.43
2023-04-16T04:28:19.740Z,3.47
2023-04-16T04:31:01.930Z,3.55
2023-04-16T04:33:37.609Z,3.58
2023-04-16T04:36:18.325Z,3.69
2023-04-16T04:38:59.602Z,3.76
2023-04-16T04:41:45.253Z,3.81
2023-04-16T04:44:26.972Z,3.89
2023-04-16T04:47:08.357Z,3.98
2023-04-16T04:49:47.864Z,4.06
2023-04-16T04:52:23.602Z,4.09
2023-04-16T04:55:04.449Z,4.29
2023-04-16T04:57:45.192Z,4.31
2023-04-16T05:00:26.315Z,4.39
2023-04-16T05:03:10.592Z,4.48
2023-04-16T05:05:45.270Z,4.61
2023-04-16T05:08:27.227Z,4.76
2023-04-16T05:11:17.247Z,4.93
2023-04-16T05:13:50.817Z,5.04
2023-04-16T05:16:29.052Z,5.06
2023-04-16T05:19:15.145Z,5.09
2023-04-16T05:21:49.864Z,5.31
2023-04-16T05:24:31.479Z,5.32
2023-04-16T05:27:09.734Z,5.31
2023-04-16T05:29:47.741Z,5.28
2023-04-16T05:32:28.550Z,5.33
2023-04-16T05:35:03.350Z,5.42
2023-04-16T05:37:41.526Z,5.53
2023-04-16T05:40:22.232Z,5.64
2023-04-16T05:43:00.512Z,5.68
2023-04-16T05:45:41.252Z,5.83
2023-04-16T05:48:16.467Z,5.96
2023-04-16T05:50:54.338Z,5.96
2023-04-16T05:53:30.277Z,6.07
2023-04-16T05:56:12.130Z,6.20
2023-04-16T05:58:53.057Z,6.46
2023-04-16T06:01:41.160Z,6.60
2023-04-16T06:04:20.440Z,6.77
2023-04-16T06:07:08.214Z,6.93
2023-04-16T06:09:51.932Z,7.13
2023-04-16T06:12:32.638Z,7.21
2023-04-16T06:15:08.018Z,7.38
2023-04-16T06:17:52.816Z,7.56
2023-04-16T06:20:36.077Z,7.79
2023-04-16T06:23:08.813Z,7.73
2023-04-16T06:25:55.469Z,7.78
2023-04-16T06:28:36.349Z,7.99
2023-04-16T06:31:17.311Z,8.23
2023-04-16T06:33:58.049Z,8.34
2023-04-16T06:36:46.796Z,8.34
2023-04-16T06:39:24.690Z,8.53
2023-04-16T06:42:07.629Z,8.33
2023-04-16T06:44:48.423Z,8.55
2023-04-16T06:47:34.200Z,8.84
2023-04-16T06:50:15.245Z,9.05
2023-04-16T06:52:56.845Z,9.20
2023-04-16T06:55:39.773Z,9.42
2023-04-16T06:58:31.899Z,9.55
2023-04-16T07:01:16.403Z,9.72
2023-04-16T07:03:55.070Z,10.03
2023-04-16T07:06:36.958Z,10.12
2023-04-16T07:09:23.175Z,9.89
2023-04-16T07:12:07.125Z,9.58
2023-04-16T07:14:49.781Z,10.07
2023-04-16T07:17:38.534Z,10.28
2023-04-16T07:20:19.743Z,10.31
2023-04-16T07:22:54.404Z,10.52
2023-04-16T07:25:37.616Z,10.55
2023-04-16T07:28:24.614Z,10.58
2023-04-16T07:31:09.790Z,10.69
2023-04-16T07:33:42.592Z,11.00
2023-04-16T07:36:30.125Z,10.67
2023-04-16T07:39:13.804Z,10.88
2023-04-16T07:41:59.036Z,11.07
2023-04-16T07:44:44.440Z,10.98
2023-04-16T07:47:29.478Z,11.08
2023-04-16T07:50:07.298Z,11.45
2023-04-16T07:52:53.928Z,11.60
2023-04-16T07:55:37.287Z,11.81
2023-04-16T07:58:18.071Z,12.29
2023-04-16T08:00:58.866Z,12.44
2023-04-16T08:03:37.791Z,12.58
2023-04-16T08:06:23.659Z,12.50
2023-04-16T08:09:04.230Z,12.69
2023-04-16T08:11:45.026Z,12.76
2023-04-16T08:14:26.356Z,12.72
2023-04-16T08:17:10.201Z,12.96
2023-04-16T08:19:53.898Z,13.03
2023-04-16T08:22:31.684Z,13.31
2023-04-16T08:25:16.123Z,13.31
2023-04-16T08:28:02.413Z,13.42
2023-04-16T08:30:45.718Z,13.62
2023-04-16T08:33:33.031Z,13.34
2023-04-16T08:36:14.836Z,13.83
2023-04-16T08:38:52.801Z,14.09
2023-04-16T08:41:36.597Z,14.00
2023-04-16T08:44:35.455Z,13.96
2023-04-16T08:47:12.662Z,14.48
2023-04-16T08:50:02.090Z,14.44
2023-04-16T08:52:50.709Z,14.79
2023-04-16T08:55:41.189Z,14.90
2023-04-16T08:58:42.392Z,15.29
2023-04-16T09:01:30.040Z,15.58
2023-04-16T09:04:22.678Z,15.58
2023-04-16T09:07:08.940Z,16.02
2023-04-16T09:09:54.812Z,15.67
2023-04-16T09:12:35.614Z,15.89
2023-04-16T09:15:26.502Z,16.16
2023-04-16T09:18:12.919Z,16.27
2023-04-16T09:21:08.408Z,16.34
2023-04-16T09:24:01.283Z,16.27
2023-04-16T09:26:44.279Z,16.75
2023-04-16T09:29:48.697Z,16.85
2023-04-16T09:32:31.423Z,16.88
2023-04-16T09:35:18.165Z,17.13
2023-04-16T09:38:19.535Z,16.87
2023-04-16T09:41:19.377Z,16.97
2023-04-16T09:44:08.807Z,16.57
2023-04-16T09:47:05.827Z,17.13
2023-04-16T09:49:56.774Z,17.21
2023-04-16T09:52:40.000Z,17.26
2023-04-16T09:55:19.295Z,17.08
2023-04-16T09:58:10.713Z,17.12
2023-04-16T10:00:57.275Z,17.07
2023-04-16T10:03:48.035Z,16.78
2023-04-16T10:06:27.852Z,16.87
2023-04-16T10:09:15.488Z,16.53
2023-04-16T10:11:56.123Z,17.09
2023-04-16T10:14:46.109Z,17.40
2023-04-16T10:17:40.543Z,17.68
2023-04-16T10:20:22.921Z,17.81
2023-04-16T10:23:09.624Z,17.79
2023-04-16T10:25:56.976Z,17.50
2023-04-16T10:28:43.663Z,17.50
2023-04-16T10:31:27.791Z,17.69
2023-04-16T10:34:13.911Z,17.41
2023-04-16T10:37:13.298Z,17.51
2023-04-16T10:39:51.658Z,17.62
2023-04-16T10:42:37.381Z,17.89
2023-04-16T10:45:23.789Z,17.71
2023-04-16T10:48:11.972Z,17.75
2023-04-16T10:51:07.235Z,17.77
2023-04-16T10:53:51.093Z,17.97
2023-04-16T10:56:34.852Z,17.84
2023-04-16T10:59:16.791Z,17.74
2023-04-16T11:01:53.081Z,17.64
2023-04-16T11:04:40.291Z,17.61
2023-04-16T11:07:49.585Z,17.36
2023-04-16T11:10:30.865Z,17.47
2023-04-16T11:13:20.378Z,17.35
2023-04-16T11:16:04.793Z,17.06
2023-04-16T11:18:51.454Z,16.92
2023-04-16T11:21:33.752Z,16.70
2023-04-16T11:24:18.567Z,16.69
2023-04-16T11:27:05.358Z,16.85
2023-04-16T11:29:48.958Z,17.08
2023-04-16T11:32:37.345Z,17.09
2023-04-16T11:35:22.000Z,17.57
2023-04-16T11:38:17.174Z,17.52
2023-04-16T11:41:01.323Z,17.62
2023-04-16T11:43:44.943Z,17.73
2023-04-16T11:46:43.128Z,17.59
2023-04-16T11:49:20.964Z,17.76
2023-04-16T11:52:04.663Z,18.03
2023-04-16T11:54:53.801Z,18.00
2023-04-16T11:57:46.149Z,18.21
2023-04-16T12:00:34.663Z,18.40
2023-04-16T12:03:25.894Z,18.15
2023-04-16T12:06:16.138Z,18.07
2023-04-16T12:08:56.813Z,17.96
2023-04-16T12:11:58.732Z,18.20
2023-04-16T12:15:00.246Z,18.55
2023-04-16T12:17:42.983Z,18.37
2023-04-16T12:20:44.272Z,18.48
2023-04-16T12:23:36.274Z,18.16
2023-04-16T12:26:23.824Z,18.53
2023-04-16T12:29:01.522Z,18.67
2023-04-16T12:31:50.814Z,18.54
2023-04-16T12:34:55.739Z,18.98
2023-04-16T12:37:43.942Z,18.71
2023-04-16T12:40:52.008Z,18.72
2023-04-16T12:43:36.043Z,18.35
2023-04-16T12:46:35.811Z,18.57
2023-04-16T12:49:24.786Z,18.30
2023-04-16T12:52:03.975Z,18.84
2023-04-16T12:54:59.946Z,18.83
2023-04-16T12:57:44.429Z,18.03
2023-04-16T13:00:33.563Z,18.07
2023-04-16T13:03:32.912Z,18.12
2023-04-16T13:06:40.468Z,18.59
2023-04-16T13:09:29.550Z,18.69
2023-04-16T13:12:17.728Z,18.73
2023-04-16T13:15:13.181Z,18.85
2023-04-16T13:17:58.881Z,18.79
2023-04-16T13:20:42.175Z,19.17
2023-04-16T13:23:41.756Z,19.65
2023-04-16T13:26:42.871Z,19.27
2023-04-16T13:29:47.769Z,19.30
2023-04-16T13:32:37.584Z,18.84
2023-04-16T13:35:34.271Z,19.05
2023-04-16T13:38:17.940Z,19.02
2023-04-16T13:41:09.949Z,19.40
2023-04-16T13:43:54.780Z,19.08
2023-04-16T13:46:57.998Z,19.01
2023-04-16T13:49:38.905Z,18.94
2023-04-16T13:52:22.213Z,19.36
2023-04-16T13:55:14.216Z,19.68
2023-04-16T13:57:56.923Z,20.35
2023-04-16T14:00:43.835Z,20.22
2023-04-16T14:03:34.320Z,20.21
2023-04-16T14:06:18.222Z,19.69
2023-04-16T14:09:06.708Z,19.28
2023-04-16T14:11:45.786Z,19.27
2023-04-16T14:14:20.899Z,19.03
2023-04-16T14:16:58.975Z,19.36
2023-04-16T14:19:36.957Z,19.59
2023-04-16T14:22:25.427Z,20.04
2023-04-16T14:25:11.616Z,20.11
2023-04-16T14:28:07.152Z,20.39
2023-04-16T14:30:44.869Z,19.86
2023-04-16T14:33:25.606Z,19.36
2023-04-16T14:36:16.514Z,20.00
2023-04-16T14:38:54.741Z,20.14
2023-04-16T14:41:33.348Z,20.33
2023-04-16T14:44:12.697Z,20.11
2023-04-16T14:46:53.911Z,20.03
2023-04-16T14:49:37.796Z,19.85
2023-04-16T14:52:15.823Z,19.44
2023-04-16T14:55:05.329Z,19.14
2023-04-16T14:57:50.720Z,18.99
2023-04-16T15:00:34.169Z,18.96
2023-04-16T15:03:15.214Z,19.10
2023-04-16T15:05:57.795Z,19.18
2023-04-16T15:08:41.513Z,19.30
2023-04-16T15:11:30.345Z,19.42
2023-04-16T15:14:11.429Z,19.86
2023-04-16T15:16:55.801Z,19.54
2023-04-16T15:19:42.724Z,19.25
2023-04-16T15:22:24.885Z,19.22
2023-04-16T15:25:13.186Z,18.77
2023-04-16T15:28:02.596Z,18.19
2023-04-16T15:30:38.857Z,18.42
2023-04-16T15:33:17.816Z,18.67
2023-04-16T15:35:54.141Z,19.09
2023-04-16T15:38:42.959Z,19.03
2023-04-16T15:41:29.186Z,19.47
2023-04-16T15:44:17.833Z,19.02
2023-04-16T15:46:58.860Z,19.12
2023-04-16T15:49:49.906Z,18.97
2023-04-16T15:52:27.575Z,18.83
2023-04-16T15:55:13.944Z,18.86
2023-04-16T15:58:00.090Z,19.11
2023-04-16T16:00:43.298Z,19.46
2023-04-16T16:03:29.769Z,18.80
2023-04-16T16:06:11.621Z,18.41
2023-04-16T16:08:53.486Z,18.25
2023-04-16T16:11:37.495Z,18.00
2023-04-16T16:14:31.103Z,17.78
2023-04-16T16:17:16.687Z,17.47
2023-04-16T16:20:04.144Z,17.25
2023-04-16T16:22:57.246Z,17.44
2023-04-16T16:25:41.216Z,17.45
2023-04-16T16:28:24.503Z,17.47
2023-04-16T16:31:13.700Z,17.42
2023-04-16T16:33:59.254Z,17.20
2023-04-16T16:36:40.071Z,17.12
2023-04-16T16:39:30.895Z,16.99
2023-04-16T16:42:18.840Z,17.07
2023-04-16T16:45:06.832Z,16.87
2023-04-16T16:47:57.668Z,16.89
2023-04-16T16:50:42.537Z,16.89
2023-04-16T16:53:31.070Z,16.90
2023-04-16T16:56:14.888Z,16.77
2023-04-16T16:58:58.089Z,16.71
2023-04-16T17:01:46.882Z,16.47
2023-04-16T17:04:28.449Z,16.42
2023-04-16T17:07:14.819Z,16.06
2023-04-16T17:10:00.383Z,16.03
2023-04-16T17:12:43.807Z,15.78
2023-04-16T17:15:24.502Z,15.88
2023-04-16T17:18:11.298Z,15.76
2023-04-16T17:20:58.141Z,15.60
2023-04-16T17:23:41.018Z,15.57
2023-04-16T17:26:22.157Z,15.40
2023-04-16T17:29:06.967Z,15.33
2023-04-16T17:31:54.420Z,15.40
2023-04-16T17:34:40.294Z,15.06
2023-04-16T17:37:23.556Z,14.98
2023-04-16T17:40:08.964Z,14.87
2023-04-16T17:42:50.838Z,14.83
2023-04-16T17:45:48.321Z,14.61
2023-04-16T17:48:25.453Z,14.67
2023-04-16T17:51:03.870Z,14.63
2023-04-16T17:53:44.907Z,14.52
2023-04-16T17:56:23.432Z,14.46
2023-04-16T17:59:08.209Z,14.46
2023-04-16T18:01:59.662Z,14.43
2023-04-16T18:04:48.826Z,14.42
2023-04-16T18:07:47.230Z,14.31
2023-04-16T18:10:51.258Z,14.25
2023-04-16T18:13:43.412Z,14.19
2023-04-16T18:16:37.622Z,14.29
2023-04-16T18:19:45.450Z,14.30
2023-04-16T18:22:28.609Z,14.30
2023-04-16T18:25:19.025Z,13.95
2023-04-16T18:28:03.985Z,13.98
2023-04-16T18:30:58.710Z,13.88
2023-04-16T18:33:55.561Z,13.82
2023-04-16T18:36:45.196Z,13.61
2023-04-16T18:39:28.704Z,13.52
2023-04-16T18:42:07.187Z,13.48
2023-04-16T18:44:59.323Z,13.62
2023-04-16T18:47:41.889Z,13.64
2023-04-16T18:50:23.245Z,13.65
2023-04-16T18:53:04.185Z,13.60
2023-04-16T18:55:50.219Z,13.64
2023-04-16T18:58:39.249Z,13.50
2023-04-16T19:01:25.166Z,13.53
2023-04-16T19:04:09.665Z,13.41
2023-04-16T19:06:54.380Z,13.38
2023-04-16T19:09:43.903Z,13.43
2023-04-16T19:12:29.046Z,13.32
2023-04-16T19:15:15.854Z,13.29
2023-04-16T19:17:55.863Z,13.12
2023-04-16T19:20:41.621Z,13.04
2023-04-16T19:23:17.028Z,12.93
2023-04-16T19:26:04.969Z,12.87
2023-04-16T19:28:45.776Z,12.82
2023-04-16T19:31:28.920Z,12.81
2023-04-16T19:34:12.815Z,12.63
2023-04-16T19:36:56.646Z,12.49
2023-04-16T19:39:34.443Z,12.46
2023-04-16T19:42:15.878Z,12.42
2023-04-16T19:45:05.073Z,12.38
2023-04-16T19:47:55.312Z,12.23
2023-04-16T19:50:46.604Z,12.31
2023-04-16T19:53:34.921Z,12.31
2023-04-16T19:56:18.790Z,12.27
2023-04-16T19:59:02.155Z,12.30
2023-04-16T20:01:46.946Z,12.30
2023-04-16T20:04:36.844Z,12.29
2023-04-16T20:07:22.115Z,12.22
2023-04-16T20:10:08.715Z,12.16
2023-04-16T20:12:52.225Z,12.26
2023-04-16T20:15:43.597Z,12.26
2023-04-16T20:18:25.988Z,12.16
2023-04-16T20:21:07.146Z,12.11
2023-04-16T20:23:52.457Z,12.11
2023-04-16T20:26:39.042Z,12.06
2023-04-16T20:29:30.136Z,12.10
2023-04-16T20:32:08.531Z,12.08
2023-04-16T20:34:49.803Z,12.04
2023-04-16T20:37:22.771Z,12.12
2023-04-16T20:40:07.823Z,12.14
2023-04-16T20:42:57.877Z,12.22
2023-04-16T20:45:41.035Z,12.12
2023-04-16T20:48:22.233Z,12.05
2023-04-16T20:51:03.175Z,12.00
2023-04-16T20:53:50.197Z,11.93
2023-04-16T20:56:40.147Z,11.94
2023-04-16T20:59:36.969Z,12.06
2023-04-16T21:02:22.716Z,11.92
2023-04-16T21:05:06.354Z,11.99
2023-04-16T21:07:43.880Z,12.09
2023-04-16T21:10:21.658Z,12.05
2023-04-16T21:13:02.445Z,12.05
2023-04-16T21:16:08.365Z,12.01
2023-04-16T21:18:55.105Z,11.95
2023-04-16T21:21:47.032Z,11.96
2023-04-16T21:24:27.800Z,11.85
2023-04-16T21:27:11.611Z,11.93
2023-04-16T21:29:55.326Z,11.86
2023-04-16T21:32:35.644Z,11.82
2023-04-16T21:35:13.867Z,11.76
2023-04-16T21:38:07.279Z,11.71
2023-04-16T21:40:56.647Z,11.57
2023-04-16T21:43:37.899Z,11.59
2023-04-16T21:46:21.573Z,11.66
2023-04-16T21:49:01.592Z,11.67
2023-04-16T21:51:47.929Z,11.59
2023-04-16T21:54:38.276Z,11.56
2023-04-16T21:57:24.638Z,11.50
2023-04-16T22:00:14.349Z,11.64
2023-04-16T22:03:09.311Z,11.50
2023-04-16T22:05:44.850Z,11.34
2023-04-16T22:08:27.777Z,11.32
2023-04-16T22:11:13.358Z,11.32
2023-04-16T22:13:51.093Z,11.26
2023-04-16T22:16:37.437Z,11.32
2023-04-16T22:19:22.467Z,11.25
2023-04-16T22:22:11.742Z,11.19
2023-04-16T22:24:55.772Z,11.16
2023-04-16T22:27:31.382Z,11.17
2023-04-16T22:30:15.605Z,11.16
2023-04-16T22:32:53.792Z,11.18
2023-04-16T22:35:39.061Z,11.22
2023-04-16T22:38:21.501Z,11.19
2023-04-16T22:41:00.910Z,11.14
2023-04-16T22:43:44.029Z,11.14
2023-04-16T22:46:27.933Z,11.21
2023-04-16T22:49:09.360Z,11.13
2023-04-16T22:51:58.785Z,11.19
2023-04-16T22:54:41.738Z,11.21
2023-04-16T22:57:17.394Z,11.19
2023-04-16T23:00:12.629Z,11.29
2023-04-16T23:03:00.580Z,11.26
2023-04-16T23:05:44.069Z,11.28
2023-04-16T23:08:21.788Z,11.25
2023-04-16T23:11:02.263Z,11.34
2023-04-16T23:13:54.503Z,11.48
2023-04-16T23:16:43.091Z,11.44
2023-04-16T23:19:25.301Z,11.34
2023-04-16T23:22:06.810Z,11.33
2023-04-16T23:24:55.085Z,11.40
2023-04-16T23:27:32.550Z,11.38
2023-04-16T23:30:11.951Z,11.36
2023-04-16T23:32:57.601Z,11.54
2023-04-16T23:35:39.808Z,11.43
2023-04-16T23:38:20.415Z,11.40
2023-04-16T23:41:07.838Z,11.28
2023-04-16T23:43:52.048Z,11.35
2023-04-16T23:46:32.789Z,11.43
2023-04-16T23:49:18.379Z,11.38
2023-04-16T23:51:59.195Z,11.44
2023-04-16T23:54:33.752Z,11.39
2023-04-16T23:57:18.065Z,11.39
